createdAt,value
2022-12-03T00:01:19.490Z,96153.00
2022-12-03T00:04:21.088Z,96151.31
2022-12-03T00:07:22.643Z,96154.06
2022-12-03T00:10:24.296Z,96143.88
2022-12-03T00:13:25.879Z,96150.09
2022-12-03T00:16:27.558Z,96150.44
2022-12-03T00:19:29.247Z,96145.28
2022-12-03T00:22:30.781Z,96154.13
2022-12-03T00:25:32.426Z,96152.44
2022-12-03T00:28:33.969Z,96144.88
2022-12-03T00:31:35.618Z,96146.69
2022-12-03T00:34:37.289Z,96153.75
2022-12-03T00:37:38.845Z,96148.78
2022-12-03T00:40:40.365Z,96154.53
2022-12-03T00:43:41.953Z,96162.78
2022-12-03T00:46:43.580Z,96167.41
2022-12-03T00:49:45.180Z,96158.91
2022-12-03T00:52:46.836Z,96166.31
2022-12-03T00:55:50.627Z,96169.25
2022-12-03T00:58:52.198Z,96162.84
2022-12-03T01:01:53.834Z,96163.19
2022-12-03T01:04:55.761Z,96164.38
2022-12-03T01:07:57.685Z,96153.31
2022-12-03T01:10:59.245Z,96159.22
2022-12-03T01:14:00.827Z,96157.53
2022-12-03T01:17:02.391Z,96156.06
2022-12-03T01:20:05.444Z,96151.75
2022-12-03T01:23:07.195Z,96159.13
2022-12-03T01:26:08.756Z,96152.19
2022-12-03T01:29:10.701Z,96150.50
2022-12-03T01:32:19.329Z,96160.09
2022-12-03T01:35:20.919Z,96163.53
2022-12-03T01:38:22.470Z,96161.03
2022-12-03T01:41:25.065Z,96156.81
2022-12-03T01:44:31.192Z,96160.19
2022-12-03T01:47:35.997Z,96156.72
2022-12-03T01:50:38.549Z,96158.41
2022-12-03T01:53:40.243Z,96165.22
2022-12-03T01:56:41.909Z,96165.97
2022-12-03T01:59:43.452Z,96160.69
2022-12-03T02:02:46.671Z,96162.72
2022-12-03T02:05:48.263Z,96171.03
2022-12-03T02:08:49.922Z,96172.00
2022-12-03T02:11:52.303Z,96169.56
2022-12-03T02:14:54.770Z,96166.19
2022-12-03T02:17:56.948Z,96167.28
2022-12-03T02:21:13.656Z,96168.22
2022-12-03T02:24:34.101Z,96163.16
2022-12-03T02:27:35.950Z,96159.59
2022-12-03T02:30:37.920Z,96163.06
2022-12-03T02:33:39.720Z,96154.31
2022-12-03T02:36:41.300Z,96165.59
2022-12-03T02:39:49.070Z,96167.16
2022-12-03T02:42:55.395Z,96164.75
2022-12-03T02:46:00.206Z,96153.47
2022-12-03T02:49:03.234Z,96153.38
2022-12-03T02:52:04.880Z,96156.09
2022-12-03T02:55:07.564Z,96164.84
2022-12-03T02:58:11.035Z,96155.34
2022-12-03T03:01:13.026Z,96157.28
2022-12-03T03:04:15.157Z,96152.22
2022-12-03T03:07:17.006Z,96153.06
2022-12-03T03:10:23.001Z,96147.19
2022-12-03T03:13:24.632Z,96159.28
2022-12-03T03:16:27.099Z,96149.47
2022-12-03T03:19:30.300Z,96148.53
2022-12-03T03:22:36.966Z,96143.38
2022-12-03T03:25:40.884Z,96150.31
2022-12-03T03:28:46.624Z,96141.59
2022-12-03T03:31:48.511Z,96146.00
2022-12-03T03:34:50.377Z,96155.09
2022-12-03T03:37:53.715Z,96148.22
2022-12-03T03:40:57.462Z,96166.75
2022-12-03T03:43:59.647Z,96152.84
2022-12-03T03:47:02.075Z,96153.78
2022-12-03T03:50:04.732Z,96149.38
2022-12-03T03:53:06.751Z,96153.69
2022-12-03T03:56:09.636Z,96151.06
2022-12-03T03:59:13.559Z,96151.16
2022-12-03T04:02:24.238Z,96145.09
2022-12-03T04:05:26.195Z,96134.41
2022-12-03T04:08:27.767Z,96126.31
2022-12-03T04:11:47.859Z,96133.28
2022-12-03T04:14:49.423Z,96145.50
2022-12-03T04:18:10.294Z,96140.31
2022-12-03T04:21:36.235Z,96136.84
2022-12-03T04:24:37.770Z,96136.75
2022-12-03T04:27:57.866Z,96134.22
2022-12-03T04:30:59.482Z,96133.47
2022-12-03T04:34:19.883Z,96139.91
2022-12-03T04:37:22.042Z,96147.06
2022-12-03T04:40:42.312Z,96136.75
2022-12-03T04:44:02.330Z,96133.81
2022-12-03T04:47:23.444Z,96145.91
2022-12-03T04:50:25.015Z,96142.56
2022-12-03T04:53:26.543Z,96154.75
2022-12-03T04:56:28.065Z,96147.09
2022-12-03T04:59:30.116Z,96162.88
2022-12-03T05:02:32.632Z,96167.31
2022-12-03T05:05:34.413Z,96180.47
2022-12-03T05:08:36.325Z,96164.16
2022-12-03T05:11:38.502Z,96173.69
2022-12-03T05:14:40.010Z,96174.69
2022-12-03T05:17:41.570Z,96169.41
2022-12-03T05:20:45.868Z,96178.03
2022-12-03T05:23:52.976Z,96171.31
2022-12-03T05:26:54.499Z,96169.50
2022-12-03T05:29:56.037Z,96165.28
2022-12-03T05:32:57.976Z,96163.81
2022-12-03T05:35:59.790Z,96160.53
2022-12-03T05:39:01.509Z,96162.66
2022-12-03T05:42:22.355Z,96149.94
2022-12-03T05:45:25.142Z,96161.81
2022-12-03T05:48:26.681Z,96164.84
2022-12-03T05:51:28.224Z,96168.63
2022-12-03T05:54:32.099Z,96179.25
2022-12-03T05:57:33.658Z,96173.34
2022-12-03T06:00:42.489Z,96175.34
2022-12-03T06:03:44.648Z,96186.06
2022-12-03T06:06:46.249Z,96178.28
2022-12-03T06:09:50.152Z,96178.59
2022-12-03T06:12:52.254Z,96174.38
2022-12-03T06:15:56.613Z,96166.78
2022-12-03T06:18:58.166Z,96168.59
2022-12-03T06:21:59.731Z,96173.19
2022-12-03T06:25:06.639Z,96166.31
2022-12-03T06:28:09.105Z,96165.28
2022-12-03T06:31:10.669Z,96169.63
2022-12-03T06:34:12.250Z,96176.75
2022-12-03T06:37:14.049Z,96168.88
2022-12-03T06:40:16.719Z,96165.53
2022-12-03T06:43:18.287Z,96164.88
2022-12-03T06:46:19.981Z,96171.91
2022-12-03T06:49:21.579Z,96171.06
2022-12-03T06:52:23.082Z,96173.41
2022-12-03T06:55:24.606Z,96169.81
2022-12-03T06:58:26.152Z,96175.63
2022-12-03T07:01:27.716Z,96162.25
2022-12-03T07:04:29.310Z,96172.69
2022-12-03T07:07:30.993Z,96167.50
2022-12-03T07:10:34.351Z,96171.84
2022-12-03T07:13:35.889Z,96174.38
2022-12-03T07:16:38.428Z,96175.31
2022-12-03T07:19:40.865Z,96171.00
2022-12-03T07:22:42.756Z,96165.72
2022-12-03T07:25:44.265Z,96169.03
2022-12-03T07:28:49.743Z,96172.50
2022-12-03T07:31:55.499Z,96167.09
2022-12-03T07:35:05.637Z,96161.13
2022-12-03T07:38:07.421Z,96169.84
2022-12-03T07:41:09.067Z,96166.38
2022-12-03T07:44:14.280Z,96166.56
2022-12-03T07:47:17.510Z,96163.94
2022-12-03T07:50:19.191Z,96166.38
2022-12-03T07:53:21.081Z,96167.84
2022-12-03T07:56:22.835Z,96165.13
2022-12-03T07:59:24.378Z,96160.63
2022-12-03T08:02:26.057Z,96153.88
2022-12-03T08:05:29.563Z,96157.88
2022-12-03T08:08:31.209Z,96162.00
2022-12-03T08:11:33.712Z,96157.56
2022-12-03T08:14:35.733Z,96170.91
2022-12-03T08:17:39.217Z,96169.13
2022-12-03T08:20:43.033Z,96162.09
2022-12-03T08:23:44.974Z,96144.44
2022-12-03T08:26:49.537Z,96142.53
2022-12-03T08:29:58.290Z,96148.75
2022-12-03T08:33:00.493Z,96172.28
2022-12-03T08:36:12.644Z,96153.16
2022-12-03T08:39:33.804Z,96153.06
2022-12-03T08:42:42.192Z,96159.03
2022-12-03T08:45:44.858Z,96152.09
2022-12-03T08:48:49.087Z,96172.09
2022-12-03T08:51:57.305Z,96155.38
2022-12-03T08:55:00.354Z,96164.22
2022-12-03T08:58:33.085Z,96168.63
2022-12-03T09:01:48.150Z,96168.94
2022-12-03T09:04:54.783Z,96164.72
2022-12-03T09:07:56.674Z,96173.66
2022-12-03T09:10:58.258Z,96171.00
2022-12-03T09:13:59.807Z,96172.81
2022-12-03T09:17:01.445Z,96182.28
2022-12-03T09:20:04.808Z,96171.66
2022-12-03T09:23:06.776Z,96169.78
2022-12-03T09:26:09.476Z,96160.81
2022-12-03T09:29:12.562Z,96156.41
2022-12-03T09:32:18.352Z,96152.22
2022-12-03T09:35:20.410Z,96148.75
2022-12-03T09:38:21.994Z,96150.22
2022-12-03T09:41:24.992Z,96150.63
2022-12-03T09:44:33.421Z,96135.50
2022-12-03T09:47:35.473Z,96135.19
2022-12-03T09:50:41.856Z,96136.78
2022-12-03T09:53:43.531Z,96131.41
2022-12-03T09:56:45.052Z,96130.25
2022-12-03T09:59:47.049Z,96130.16
2022-12-03T10:02:49.603Z,96128.22
2022-12-03T10:05:51.609Z,96120.13
2022-12-03T10:08:55.598Z,96123.41
2022-12-03T10:11:58.984Z,96117.91
2022-12-03T10:15:00.560Z,96096.25
2022-12-03T10:18:18.008Z,96104.22
2022-12-03T10:21:22.838Z,96103.28
2022-12-03T10:24:25.500Z,96099.47
2022-12-03T10:27:30.861Z,96099.28
2022-12-03T10:30:32.842Z,96098.34
2022-12-03T10:33:37.435Z,96092.13
2022-12-03T10:36:38.980Z,96082.44
2022-12-03T10:39:56.469Z,96082.31
2022-12-03T10:43:19.548Z,96077.28
2022-12-03T10:46:22.857Z,96084.94
2022-12-03T10:49:24.479Z,96083.88
2022-12-03T10:52:26.329Z,96072.41
2022-12-03T10:55:33.809Z,96069.78
2022-12-03T10:58:37.203Z,96082.94
2022-12-03T11:01:38.825Z,96076.63
2022-12-03T11:04:41.449Z,96078.28
2022-12-03T11:07:43.914Z,96074.81
2022-12-03T11:10:55.441Z,96064.28
2022-12-03T11:13:59.150Z,96064.28
2022-12-03T11:17:07.893Z,96063.22
2022-12-03T11:20:24.707Z,96065.88
2022-12-03T11:23:44.721Z,96070.09
2022-12-03T11:26:46.194Z,96064.72
2022-12-03T11:29:54.475Z,96064.72
2022-12-03T11:33:00.485Z,96067.34
2022-12-03T11:36:04.743Z,96067.34
2022-12-03T11:39:08.294Z,96054.19
2022-12-03T11:42:25.344Z,96055.84
2022-12-03T11:45:33.574Z,96052.25
2022-12-03T11:48:44.320Z,96054.88
2022-12-03T11:51:45.954Z,96054.78
2022-12-03T11:54:51.981Z,96039.84
2022-12-03T11:58:01.963Z,96044.03
2022-12-03T12:01:06.751Z,96044.75
2022-12-03T12:04:28.018Z,96033.72
2022-12-03T12:07:36.888Z,96039.34
2022-12-03T12:10:39.583Z,96041.31
2022-12-03T12:13:41.138Z,96041.44
2022-12-03T12:16:51.773Z,96034.28
2022-12-03T12:20:26.289Z,96021.09
2022-12-03T12:23:28.997Z,96022.78
2022-12-03T12:26:30.620Z,96013.94
2022-12-03T12:29:32.799Z,96016.47
2022-12-03T12:32:44.224Z,96012.16
2022-12-03T12:35:45.966Z,96007.84
2022-12-03T12:38:47.517Z,96003.63
2022-12-03T12:41:50.410Z,96010.91
2022-12-03T12:44:52.547Z,96008.59
2022-12-03T12:48:03.944Z,96003.78
2022-12-03T12:51:13.426Z,96001.69
2022-12-03T12:54:17.404Z,95992.84
2022-12-03T12:57:22.498Z,95996.81
2022-12-03T13:00:24.493Z,96000.44
2022-12-03T13:03:29.409Z,96001.03
2022-12-03T13:06:32.119Z,95997.47
2022-12-03T13:09:33.724Z,95984.41
2022-12-03T13:12:36.468Z,95985.47
2022-12-03T13:15:45.012Z,95974.22
2022-12-03T13:18:49.837Z,95974.31
2022-12-03T13:21:55.478Z,95969.91
2022-12-03T13:25:04.593Z,95972.53
2022-12-03T13:28:07.924Z,95962.56
2022-12-03T13:31:22.221Z,95964.00
2022-12-03T13:34:26.651Z,95975.38
2022-12-03T13:37:31.224Z,95969.16
2022-12-03T13:40:36.145Z,95964.75
2022-12-03T13:43:44.399Z,95973.47
2022-12-03T13:46:46.926Z,95968.41
2022-12-03T13:49:53.638Z,95961.59
2022-12-03T13:52:56.180Z,95963.28
2022-12-03T13:56:27.786Z,95958.13
2022-12-03T13:59:29.312Z,95961.72
2022-12-03T14:02:30.903Z,95963.59
2022-12-03T14:05:32.601Z,95956.78
2022-12-03T14:08:34.223Z,95961.31
2022-12-03T14:11:55.506Z,95966.69
2022-12-03T14:14:57.457Z,95957.75
2022-12-03T14:17:59.085Z,95969.94
2022-12-03T14:21:00.594Z,95976.88
2022-12-03T14:24:02.136Z,95975.41
2022-12-03T14:27:03.777Z,95972.03
2022-12-03T14:30:05.950Z,95965.09
2022-12-03T14:33:14.744Z,95966.38
2022-12-03T14:36:16.928Z,95952.72
2022-12-03T14:39:18.489Z,95965.97
2022-12-03T14:42:20.020Z,95968.94
2022-12-03T14:45:22.944Z,95968.09
2022-12-03T14:48:24.597Z,95951.69
2022-12-03T14:51:26.168Z,95954.22
2022-12-03T14:54:28.023Z,95950.53
2022-12-03T14:57:29.555Z,95951.28
2022-12-03T15:00:31.113Z,95950.28
2022-12-03T15:03:32.656Z,95941.47
2022-12-03T15:06:34.221Z,95950.84
2022-12-03T15:09:35.788Z,95955.00
2022-12-03T15:12:37.477Z,95966.38
2022-12-03T15:15:39.047Z,95965.44
2022-12-03T15:18:40.579Z,95962.69
2022-12-03T15:21:42.175Z,95967.03
2022-12-03T15:24:43.748Z,95964.50
2022-12-03T15:27:45.288Z,95960.28
2022-12-03T15:30:46.830Z,95958.50
2022-12-03T15:33:48.555Z,95955.69
2022-12-03T15:36:51.150Z,95964.97
2022-12-03T15:39:52.686Z,95952.75
2022-12-03T15:42:54.560Z,95953.91
2022-12-03T15:45:56.139Z,95955.59
2022-12-03T15:48:57.900Z,95950.44
2022-12-03T15:51:59.454Z,95953.06
2022-12-03T15:55:01.548Z,95944.31
2022-12-03T15:58:03.061Z,95946.84
2022-12-03T16:01:08.575Z,95938.97
2022-12-03T16:04:10.199Z,95946.84
2022-12-03T16:07:11.835Z,95949.47
2022-12-03T16:10:14.103Z,95952.34
2022-12-03T16:13:15.691Z,95948.53
2022-12-03T16:16:17.382Z,95941.69
2022-12-03T16:19:18.999Z,95941.94
2022-12-03T16:22:20.628Z,95949.59
2022-12-03T16:25:22.190Z,95956.75
2022-12-03T16:28:23.774Z,95952.34
2022-12-03T16:31:25.466Z,95954.84
2022-12-03T16:34:27.201Z,95960.75
2022-12-03T16:37:28.733Z,95960.94
2022-12-03T16:40:30.311Z,95954.25
2022-12-03T16:43:34.228Z,95958.56
2022-12-03T16:46:35.793Z,95958.75
2022-12-03T16:49:37.557Z,95950.13
2022-12-03T16:52:39.071Z,95951.94
2022-12-03T16:55:40.948Z,95954.56
2022-12-03T16:58:42.894Z,95947.72
2022-12-03T17:01:44.541Z,95947.72
2022-12-03T17:04:46.188Z,95949.63
2022-12-03T17:07:49.109Z,95949.41
2022-12-03T17:10:50.783Z,95949.63
2022-12-03T17:13:52.386Z,95944.25
2022-12-03T17:16:53.920Z,95943.63
2022-12-03T17:19:55.638Z,95947.81
2022-12-03T17:22:58.298Z,95945.19
2022-12-03T17:25:59.834Z,95941.72
2022-12-03T17:29:01.405Z,95936.47
2022-12-03T17:32:03.219Z,95934.78
2022-12-03T17:35:05.154Z,95929.66
2022-12-03T17:38:06.791Z,95929.66
2022-12-03T17:41:08.642Z,95921.78
2022-12-03T17:44:12.969Z,95924.16
2022-12-03T17:47:16.802Z,95916.06
2022-12-03T17:50:18.446Z,95923.13
2022-12-03T17:53:19.988Z,95919.75
2022-12-03T17:56:21.614Z,95910.06
2022-12-03T17:59:23.171Z,95906.81
2022-12-03T18:02:24.690Z,95914.09
2022-12-03T18:05:26.294Z,95915.88
2022-12-03T18:08:27.956Z,95912.84
2022-12-03T18:11:29.686Z,95904.94
2022-12-03T18:14:31.220Z,95907.13
2022-12-03T18:17:32.776Z,95901.88
2022-12-03T18:20:34.402Z,95898.41
2022-12-03T18:23:36.059Z,95893.16
2022-12-03T18:26:37.897Z,95891.47
2022-12-03T18:29:39.453Z,95888.22
2022-12-03T18:32:41.045Z,95885.06
2022-12-03T18:35:43.204Z,95905.78
2022-12-03T18:38:44.862Z,95906.94
2022-12-03T18:41:46.625Z,95899.19
2022-12-03T18:44:50.245Z,95908.63
2022-12-03T18:47:51.909Z,95910.19
2022-12-03T18:50:54.691Z,95901.28
2022-12-03T18:53:56.217Z,95901.47
2022-12-03T18:56:57.880Z,95902.72
2022-12-03T18:59:59.602Z,95902.94
2022-12-03T19:03:05.349Z,95901.28
2022-12-03T19:06:17.205Z,95898.75
2022-12-03T19:09:20.509Z,95890.97
2022-12-03T19:12:22.183Z,95890.84
2022-12-03T19:15:24.053Z,95883.91
2022-12-03T19:18:25.700Z,95893.69
2022-12-03T19:21:33.357Z,95885.06
2022-12-03T19:24:35.417Z,95891.91
2022-12-03T19:27:36.953Z,95884.44
2022-12-03T19:30:38.507Z,95889.50
2022-12-03T19:33:42.307Z,95895.56
2022-12-03T19:36:43.925Z,95899.19
2022-12-03T19:39:45.752Z,95888.13
2022-12-03T19:42:47.293Z,95893.59
2022-12-03T19:45:48.902Z,95891.81
2022-12-03T19:48:50.552Z,95883.91
2022-12-03T19:51:52.134Z,95882.03
2022-12-03T19:54:53.741Z,95876.78
2022-12-03T19:57:55.295Z,95878.66
2022-12-03T20:00:57.645Z,95885.81
2022-12-03T20:04:00.896Z,95885.06
2022-12-03T20:07:02.516Z,95885.28
2022-12-03T20:10:04.649Z,95881.81
2022-12-03T20:13:08.111Z,95888.13
2022-12-03T20:16:13.377Z,95879.41
2022-12-03T20:19:16.439Z,95872.25
2022-12-03T20:22:17.937Z,95864.38
2022-12-03T20:25:19.496Z,95862.47
2022-12-03T20:28:21.097Z,95864.28
2022-12-03T20:31:24.705Z,95853.00
2022-12-03T20:34:26.325Z,95846.91
2022-12-03T20:37:27.823Z,95841.56
2022-12-03T20:40:29.434Z,95850.38
2022-12-03T20:43:31.154Z,95859.94
2022-12-03T20:46:32.921Z,95860.78
2022-12-03T20:49:35.243Z,95863.53
2022-12-03T20:52:36.932Z,95847.84
2022-12-03T20:55:38.676Z,95868.88
2022-12-03T20:58:40.151Z,95857.53
2022-12-03T21:01:42.937Z,95849.03
2022-12-03T21:04:44.621Z,95849.13
2022-12-03T21:07:52.387Z,95842.09
2022-12-03T21:10:54.049Z,95831.06
2022-12-03T21:13:55.945Z,95849.25
2022-12-03T21:17:08.280Z,95841.50
2022-12-03T21:20:10.823Z,95840.31
2022-12-03T21:23:14.035Z,95838.53
2022-12-03T21:26:21.081Z,95837.59
2022-12-03T21:29:23.422Z,95843.56
2022-12-03T21:32:25.129Z,95838.81
2022-12-03T21:35:26.662Z,95826.97
2022-12-03T21:38:29.575Z,95829.25
2022-12-03T21:41:31.896Z,95812.53
2022-12-03T21:44:35.023Z,95819.47
2022-12-03T21:47:37.662Z,95818.53
2022-12-03T21:50:39.390Z,95811.47
2022-12-03T21:53:43.621Z,95813.03
2022-12-03T21:56:45.391Z,95812.09
2022-12-03T21:59:46.980Z,95808.53
2022-12-03T22:02:48.582Z,95799.59
2022-12-03T22:05:50.499Z,95808.81
2022-12-03T22:08:52.129Z,95809.03
2022-12-03T22:11:56.740Z,95817.41
2022-12-03T22:14:58.348Z,95823.41
2022-12-03T22:18:00.077Z,95831.53
2022-12-03T22:21:10.976Z,95829.94
2022-12-03T22:24:13.094Z,95830.78
2022-12-03T22:27:14.747Z,95831.00
2022-12-03T22:30:16.470Z,95825.03
2022-12-03T22:33:18.039Z,95813.88
2022-12-03T22:36:21.415Z,95818.31
2022-12-03T22:39:23.361Z,95822.81
2022-12-03T22:42:24.939Z,95826.53
2022-12-03T22:45:26.503Z,95835.34
2022-12-03T22:48:28.256Z,95836.19
2022-12-03T22:51:30.480Z,95818.84
2022-12-03T22:54:32.009Z,95802.88
2022-12-03T22:57:33.596Z,95794.75
2022-12-03T23:00:37.947Z,95797.28
2022-12-03T23:03:39.545Z,95793.81
2022-12-03T23:06:41.336Z,95782.69
2022-12-03T23:09:42.930Z,95783.38
2022-12-03T23:12:44.459Z,95776.69
2022-12-03T23:15:51.488Z,95774.66
2022-12-03T23:18:53.291Z,95765.13
2022-12-03T23:21:54.815Z,95758.09
2022-12-03T23:24:56.393Z,95761.22
2022-12-03T23:27:57.949Z,95768.25
2022-12-03T23:31:02.899Z,95749.34
2022-12-03T23:34:04.713Z,95760.38
2022-12-03T23:37:06.350Z,95762.16
2022-12-03T23:40:08.261Z,95744.59
2022-12-03T23:43:09.913Z,95735.03
2022-12-03T23:46:16.138Z,95742.91
2022-12-03T23:49:17.706Z,95736.72
2022-12-03T23:52:19.237Z,95731.34
2022-12-03T23:55:21.164Z,95727.88
2022-12-03T23:58:22.738Z,95730.16
